Time;durP1;ratioP1;P1;durP2;ratioP2;P2;SDS_P1;SDS_P2;PMS_P1;PMS_P2;Temp;Humidity;BMP_temperature;BMP_pressure;BME280_temperature;BME280_humidity;BME280_pressure;Samples;Min_cycle;Max_cycle;Signal;HPM_P1;HPM_P2
2021/07/06 00:02:03;;;;;;;1.80;1.70;;;;;;;17.95;66.86;98377.56;5051903;28;20029;-67
2021/07/06 00:04:28;;;;;;;2.03;1.90;;;;;;;17.87;66.69;98379.72;5051474;28;20028;-67
2021/07/06 00:06:55;;;;;;;2.92;1.63;;;;;;;17.87;65.33;98383.16;5051366;28;20116;-67
2021/07/06 00:09:21;;;;;;;1.50;1.40;;;;;;;17.88;64.98;98390.00;5050117;28;20029;-67
2021/07/06 00:11:47;;;;;;;1.70;1.60;;;;;;;17.99;64.03;98395.47;5050559;28;20029;-67
2021/07/06 00:14:13;;;;;;;1.90;1.38;;;;;;;17.93;64.35;98394.97;5051419;28;20039;-67
2021/07/06 00:16:38;;;;;;;1.48;1.38;;;;;;;17.99;64.26;98392.88;5036014;28;20041;-67
2021/07/06 00:19:04;;;;;;;1.30;1.30;;;;;;;17.91;64.14;98395.03;5050953;28;20068;-67
2021/07/06 00:21:29;;;;;;;1.65;1.65;;;;;;;17.97;63.57;98399.06;5049271;28;20083;-67
2021/07/06 00:23:55;;;;;;;4.00;1.20;;;;;;;17.97;63.83;98394.72;5049638;28;20071;-67
2021/07/06 00:26:21;;;;;;;1.98;1.60;;;;;;;17.96;63.73;98394.78;5048702;28;20070;-67
2021/07/06 00:28:46;;;;;;;3.03;1.60;;;;;;;18.01;63.31;98401.44;5051675;28;20040;-67
2021/07/06 00:31:12;;;;;;;1.38;1.30;;;;;;;18.04;63.10;98395.22;5049414;28;20025;-67
2021/07/06 00:33:38;;;;;;;1.40;1.40;;;;;;;17.94;63.72;98401.84;5048811;28;20048;-67
2021/07/06 00:36:04;;;;;;;2.38;2.03;;;;;;;17.89;64.40;98391.69;5049959;28;20692;-67
2021/07/06 00:38:29;;;;;;;2.60;1.77;;;;;;;17.89;63.80;98406.41;5050599;28;20029;-67
2021/07/06 00:40:57;;;;;;;2.00;1.40;;;;;;;17.85;64.26;98410.09;5049535;28;20110;-67
2021/07/06 00:43:23;;;;;;;1.50;1.40;;;;;;;17.78;64.74;98409.56;5052903;28;20029;-67
2021/07/06 00:45:50;;;;;;;1.88;1.50;;;;;;;17.73;65.13;98408.97;5049977;28;20036;-67
2021/07/06 00:48:16;;;;;;;2.75;1.50;;;;;;;17.73;65.57;98409.81;5051563;28;20080;-67
2021/07/06 00:50:41;;;;;;;1.80;1.70;;;;;;;17.73;65.44;98412.41;5050768;28;20032;-67
2021/07/06 00:53:07;;;;;;;1.50;1.40;;;;;;;17.74;65.71;98414.06;5050077;28;20029;-67
2021/07/06 00:55:33;;;;;;;1.67;1.40;;;;;;;17.80;65.32;98408.56;5049774;28;20690;-67
2021/07/06 00:57:58;;;;;;;1.50;1.40;;;;;;;17.91;64.46;98412.38;5050315;28;20376;-67
2021/07/06 01:00:25;;;;;;;1.65;1.35;;;;;;;17.98;64.04;98409.38;5050577;28;20041;-67
2021/07/06 01:02:52;;;;;;;1.58;1.48;;;;;;;18.04;63.45;98401.25;5050392;28;20028;-66
2021/07/06 01:05:21;;;;;;;1.50;1.40;;;;;;;18.09;63.47;98407.03;5049536;28;20052;-67
2021/07/06 01:07:47;;;;;;;1.83;1.73;;;;;;;18.18;62.59;98400.53;5035852;28;20029;-67
2021/07/06 01:10:13;;;;;;;1.35;1.35;;;;;;;18.21;62.78;98392.56;5051245;28;20076;-67
2021/07/06 01:12:41;;;;;;;1.60;1.50;;;;;;;18.17;62.97;98396.25;5050963;28;20048;-67
2021/07/06 01:15:11;;;;;;;1.58;1.40;;;;;;;18.14;62.70;98389.47;5049770;28;20074;-66
2021/07/06 01:17:37;;;;;;;1.70;1.60;;;;;;;18.13;62.68;98392.16;5049129;28;20362;-66
2021/07/06 01:20:09;;;;;;;1.40;1.40;;;;;;;18.15;62.67;98393.75;5032150;28;20477;-65
2021/07/06 01:22:34;;;;;;;1.40;1.30;;;;;;;18.06;62.79;98389.06;5047624;28;20313;-67
2021/07/06 01:25:02;;;;;;;2.28;1.65;;;;;;;18.01;63.65;98377.25;5048326;28;20025;-66
2021/07/06 01:27:27;;;;;;;1.42;1.42;;;;;;;17.91;64.65;98384.66;5049244;28;20021;-66
2021/07/06 01:29:54;;;;;;;1.70;1.50;;;;;;;17.84;65.24;98382.47;5050734;28;20110;-66
2021/07/06 01:32:19;;;;;;;1.33;1.33;;;;;;;17.69;65.95;98366.81;5048059;28;20037;-67
2021/07/06 01:34:45;;;;;;;1.58;1.45;;;;;;;17.72;65.44;98384.78;5050674;28;20427;-67
2021/07/06 01:37:15;;;;;;;1.95;1.65;;;;;;;17.68;65.29;98385.88;5050851;28;20621;-67
2021/07/06 01:39:40;;;;;;;1.15;1.15;;;;;;;17.60;65.77;98387.19;5050527;28;20039;-67
2021/07/06 01:42:06;;;;;;;2.78;1.52;;;;;;;17.60;65.39;98384.59;5049512;28;20044;-67
2021/07/06 01:44:31;;;;;;;2.03;1.92;;;;;;;17.55;65.48;98384.78;5048573;28;20310;-67
2021/07/06 01:46:57;;;;;;;1.50;1.40;;;;;;;17.59;65.28;98377.72;5049499;28;20025;-67
2021/07/06 01:49:22;;;;;;;1.77;1.67;;;;;;;17.64;64.56;98378.31;5050468;28;20032;-67
2021/07/06 01:51:48;;;;;;;1.50;1.50;;;;;;;17.78;63.52;98378.44;5049750;28;20029;-67
2021/07/06 01:54:14;;;;;;;1.63;1.52;;;;;;;17.82;63.27;98379.97;5050192;28;20024;-66
2021/07/06 01:56:42;;;;;;;1.65;1.52;;;;;;;17.87;63.30;98383.16;5048674;28;20132;-67
2021/07/06 01:59:08;;;;;;;1.20;1.20;;;;;;;17.77;63.27;98380.22;5049067;28;20037;-67
2021/07/06 02:01:35;;;;;;;1.25;1.20;;;;;;;17.68;63.79;98378.09;5050367;28;20048;-67
2021/07/06 02:04:02;;;;;;;1.50;1.50;;;;;;;17.60;64.79;98384.59;5049856;28;20033;-67
2021/07/06 02:06:27;;;;;;;1.90;1.70;;;;;;;17.59;64.16;98388.09;5048847;28;20364;-67
2021/07/06 02:08:53;;;;;;;1.63;1.52;;;;;;;17.54;64.01;98388.28;5047800;28;20352;-67
2021/07/06 02:11:18;;;;;;;3.10;1.40;;;;;;;17.49;64.46;98387.69;5048291;28;20127;-67
2021/07/06 02:13:44;;;;;;;1.55;1.45;;;;;;;17.40;66.04;98382.16;5050413;28;20423;-67
2021/07/06 02:16:10;;;;;;;1.52;1.50;;;;;;;17.30;66.74;98379.16;5050509;28;20321;-67
2021/07/06 02:18:36;;;;;;;1.70;1.60;;;;;;;17.17;67.94;98389.31;5050950;28;20083;-67
2021/07/06 02:21:02;;;;;;;1.50;1.40;;;;;;;17.16;67.02;98386.78;5034419;28;20040;-66
2021/07/06 02:23:28;;;;;;;1.65;1.55;;;;;;;17.21;65.88;98382.22;5050620;28;20033;-67
2021/07/06 02:25:55;;;;;;;1.65;1.55;;;;;;;17.13;67.22;98377.41;5049447;28;20044;-67
2021/07/06 02:28:21;;;;;;;1.50;1.40;;;;;;;17.05;67.93;98374.38;5033397;28;20025;-67
2021/07/06 02:30:48;;;;;;;2.40;1.70;;;;;;;16.98;67.51;98382.50;5049614;28;20033;-67
2021/07/06 02:33:15;;;;;;;1.48;1.38;;;;;;;16.96;68.32;98392.94;5052514;28;20380;-67
2021/07/06 02:35:41;;;;;;;1.65;1.48;;;;;;;16.94;68.33;98388.72;5052661;28;20047;-67
2021/07/06 02:38:06;;;;;;;2.35;1.63;;;;;;;16.91;68.85;98389.72;5054425;28;20028;-67
2021/07/06 02:40:33;;;;;;;2.50;1.55;;;;;;;16.93;68.50;98387.09;5053469;28;20106;-67
2021/07/06 02:42:59;;;;;;;2.17;1.50;;;;;;;16.88;68.60;98389.88;5052790;28;20575;-67
2021/07/06 02:45:26;;;;;;;1.60;1.50;;;;;;;16.89;68.85;98388.94;5053835;28;20041;-67
2021/07/06 02:47:51;;;;;;;4.55;2.97;;;;;;;16.85;68.84;98379.66;5053168;28;20037;-67
2021/07/06 02:50:19;;;;;;;1.55;1.45;;;;;;;16.86;68.48;98383.94;5053982;28;20337;-67
2021/07/06 02:52:44;;;;;;;1.60;1.50;;;;;;;16.88;68.79;98384.72;5051126;28;20142;-66
2021/07/06 02:55:10;;;;;;;2.90;1.48;;;;;;;16.86;68.20;98381.34;5053282;28;20323;-65
2021/07/06 03:00:24;;;;;;;1.35;1.35;;;;;;;16.84;68.54;98378.00;5052478;28;20321;-66
2021/07/06 03:03:06;;;;;;;1.70;1.60;;;;;;;16.83;68.92;98382.34;5053532;28;20037;-67
2021/07/06 03:05:32;;;;;;;2.15;1.98;;;;;;;16.77;68.80;98381.78;5050171;28;20028;-67
2021/07/06 03:07:59;;;;;;;1.50;1.40;;;;;;;16.73;69.19;98380.25;5052507;28;20032;-66
2021/07/06 03:10:28;;;;;;;1.77;1.50;;;;;;;16.71;69.27;98379.50;5037276;28;20051;-67
2021/07/06 03:12:54;;;;;;;1.42;1.33;;;;;;;16.65;69.64;98378.03;5051305;28;20441;-67
2021/07/06 03:15:25;;;;;;;1.50;1.25;;;;;;;16.66;69.53;98376.28;5052200;28;20061;-67
2021/07/06 03:17:50;;;;;;;2.45;1.92;;;;;;;16.63;69.19;98379.03;5051819;28;20033;-67
2021/07/06 03:20:19;;;;;;;2.05;1.95;;;;;;;16.60;69.49;98368.78;5051229;28;20048;-67
2021/07/06 03:22:45;;;;;;;2.10;1.52;;;;;;;16.62;70.19;98378.19;5049513;28;20441;-67
2021/07/06 03:25:12;;;;;;;2.40;1.67;;;;;;;16.64;69.58;98372.91;5053493;28;20154;-67
2021/07/06 03:27:38;;;;;;;1.73;1.42;;;;;;;16.60;69.93;98377.41;5052261;28;20047;-67
2021/07/06 03:30:05;;;;;;;1.55;1.42;;;;;;;16.65;69.70;98377.19;5053039;28;20037;-67
2021/07/06 03:32:31;;;;;;;1.67;1.45;;;;;;;16.59;70.31;98383.47;5050105;28;20365;-67
2021/07/06 03:34:56;;;;;;;2.60;1.67;;;;;;;16.60;69.78;98377.41;5051123;28;20037;-67
2021/07/06 03:37:22;;;;;;;1.45;1.38;;;;;;;16.60;69.30;98384.31;5049886;28;20425;-68
2021/07/06 03:39:47;;;;;;;1.45;1.40;;;;;;;16.62;69.91;98377.34;5050568;28;20036;-66
2021/07/06 03:42:13;;;;;;;1.60;1.50;;;;;;;16.64;69.86;98386.69;5049284;28;20037;-66
2021/07/06 03:44:38;;;;;;;1.50;1.38;;;;;;;16.67;69.60;98380.56;5050905;28;20398;-67
2021/07/06 03:47:05;;;;;;;1.60;1.52;;;;;;;16.73;69.16;98380.25;5050890;28;20037;-67
2021/07/06 03:49:32;;;;;;;1.35;1.35;;;;;;;16.80;69.02;98379.06;5050258;28;20389;-67
2021/07/06 03:51:57;;;;;;;1.70;1.60;;;;;;;16.89;68.45;98384.63;5052645;28;20040;-67
2021/07/06 03:54:23;;;;;;;2.25;1.30;;;;;;;17.03;68.06;98377.94;5052089;28;20075;-68
2021/07/06 03:56:48;;;;;;;2.00;1.77;;;;;;;17.20;66.45;98378.78;5051208;28;20059;-68
2021/07/06 03:59:13;;;;;;;2.65;1.50;;;;;;;17.37;66.78;98383.13;5050984;28;20045;-67
2021/07/06 04:01:39;;;;;;;2.45;2.05;;;;;;;17.51;66.16;98374.66;5050325;28;20441;-68
2021/07/06 04:04:04;;;;;;;1.70;1.45;;;;;;;17.60;66.31;98377.66;5051629;28;20445;-67
2021/07/06 04:06:30;;;;;;;2.13;1.92;;;;;;;17.78;66.04;98375.84;5051103;28;20033;-68
2021/07/06 04:08:56;;;;;;;2.83;2.47;;;;;;;17.93;65.92;98382.84;5049187;28;20040;-66
2021/07/06 04:11:22;;;;;;;2.08;1.88;;;;;;;18.09;64.44;98375.91;5049074;28;20060;-67
2021/07/06 04:13:48;;;;;;;1.83;1.73;;;;;;;18.25;63.31;98375.91;5050984;28;20478;-67
2021/07/06 04:16:15;;;;;;;3.15;1.67;;;;;;;18.42;62.09;98373.25;5049391;28;20053;-67
2021/07/06 04:18:40;;;;;;;1.95;1.85;;;;;;;18.56;60.93;98377.72;5051398;28;20033;-67
2021/07/06 04:21:06;;;;;;;2.00;1.90;;;;;;;18.67;61.47;98383.19;5035539;28;20028;-66
2021/07/06 04:23:38;;;;;;;2.10;1.90;;;;;;;18.82;61.41;98390.09;5051729;28;20293;-67
2021/07/06 04:26:04;;;;;;;2.00;1.90;;;;;;;18.90;61.68;98387.06;5049909;28;20033;-68
2021/07/06 04:28:30;;;;;;;2.00;1.90;;;;;;;19.01;61.81;98377.72;5026545;28;20397;-68
2021/07/06 04:30:57;;;;;;;3.03;2.25;;;;;;;19.16;60.67;98378.63;5048808;28;20033;-64
2021/07/06 04:33:22;;;;;;;2.20;1.90;;;;;;;19.25;59.79;98372.06;5034574;28;20334;-62
2021/07/06 04:35:48;;;;;;;3.20;2.17;;;;;;;19.36;60.17;98380.91;5050002;28;20036;-62
2021/07/06 04:38:13;;;;;;;2.83;2.45;;;;;;;19.52;60.44;98378.25;5049740;28;20278;-62
2021/07/06 04:40:39;;;;;;;2.15;2.00;;;;;;;19.55;60.66;98378.09;5036621;28;20373;-62
2021/07/06 04:43:06;;;;;;;2.67;2.47;;;;;;;19.75;59.68;98377.75;5050866;28;20460;-62
2021/07/06 04:45:33;;;;;;;1.90;1.80;;;;;;;19.87;59.51;98383.97;5048048;28;20046;-61
2021/07/06 04:47:58;;;;;;;2.53;2.28;;;;;;;19.97;58.79;98377.28;5050944;28;20126;-62
2021/07/06 04:50:24;;;;;;;2.20;2.10;;;;;;;20.10;58.46;98378.19;5050012;28;20131;-62
2021/07/06 04:52:51;;;;;;;2.03;1.92;;;;;;;20.28;58.01;98389.25;5035086;28;20057;-62
2021/07/06 04:55:17;;;;;;;2.20;2.00;;;;;;;20.51;57.24;98383.47;5049707;28;20039;-62
2021/07/06 04:57:43;;;;;;;4.30;2.10;;;;;;;20.70;56.30;98378.78;5048399;28;20389;-63
2021/07/06 05:00:09;;;;;;;1.90;1.80;;;;;;;20.80;56.71;98385.03;5048122;28;20035;-63
2021/07/06 05:02:35;;;;;;;1.92;1.83;;;;;;;21.01;56.16;98389.78;5049411;28;20449;-61
2021/07/06 05:05:02;;;;;;;2.65;2.00;;;;;;;21.16;55.21;98392.28;5035872;28;20074;-63
2021/07/06 05:07:28;;;;;;;2.13;2.00;;;;;;;21.35;55.02;98384.91;5046148;28;20025;-63
2021/07/06 05:09:54;;;;;;;2.20;2.10;;;;;;;21.46;54.58;98383.38;5050496;28;20033;-63
2021/07/06 05:12:20;;;;;;;2.25;2.15;;;;;;;21.65;54.27;98386.41;5047616;28;20323;-63
2021/07/06 05:14:45;;;;;;;2.10;2.00;;;;;;;21.75;53.65;98388.28;5050076;28;20405;-63
2021/07/06 05:17:11;;;;;;;2.35;2.15;;;;;;;21.90;53.42;98385.59;5048728;28;20136;-63
2021/07/06 05:19:37;;;;;;;1.85;1.75;;;;;;;22.04;53.31;98375.03;5048349;28;20024;-63
2021/07/06 05:22:02;;;;;;;2.03;1.92;;;;;;;22.06;54.03;98375.78;5047792;28;20047;-63
2021/07/06 05:24:28;;;;;;;2.15;2.05;;;;;;;22.20;53.73;98386.06;5050168;28;20061;-63
2021/07/06 05:26:53;;;;;;;1.50;1.40;;;;;;;22.09;52.61;98379.00;5048413;28;20421;-63
2021/07/06 05:29:19;;;;;;;2.47;1.98;;;;;;;22.29;52.14;98380.22;5049852;28;20060;-63
2021/07/06 05:31:44;;;;;;;2.40;2.15;;;;;;;22.34;51.45;98380.72;5050396;28;20048;-63
2021/07/06 05:34:10;;;;;;;3.38;1.85;;;;;;;22.56;51.42;98382.66;5049928;28;20032;-62
2021/07/06 05:36:36;;;;;;;2.47;2.30;;;;;;;22.73;51.00;98382.31;5048437;28;20021;-62
2021/07/06 05:39:02;;;;;;;2.03;1.92;;;;;;;22.87;51.22;98384.78;5047966;28;20313;-62
2021/07/06 05:41:27;;;;;;;5.18;2.33;;;;;;;22.85;50.14;98383.19;5033451;28;20132;-63
2021/07/06 05:43:53;;;;;;;2.47;2.28;;;;;;;22.94;49.76;98385.13;5033524;28;20572;-63
2021/07/06 05:46:18;;;;;;;2.30;2.10;;;;;;;23.06;50.14;98381.63;5033204;28;20075;-63
2021/07/06 05:48:45;;;;;;;2.30;2.10;;;;;;;23.04;49.94;98381.72;5050012;28;20052;-64
2021/07/06 05:51:11;;;;;;;3.20;2.33;;;;;;;23.21;50.37;98383.13;5050915;28;20029;-63
2021/07/06 05:53:36;;;;;;;2.55;2.45;;;;;;;23.38;50.50;98380.06;5035171;28;20029;-63
2021/07/06 05:56:02;;;;;;;2.42;2.22;;;;;;;23.42;50.50;98376.28;5049715;28;20075;-63
2021/07/06 05:58:28;;;;;;;2.58;2.47;;;;;;;23.46;51.06;98388.22;5049189;28;20119;-63
2021/07/06 06:00:53;;;;;;;2.55;2.35;;;;;;;23.54;51.20;98383.25;5050426;28;20294;-63
2021/07/06 06:03:18;;;;;;;2.90;2.70;;;;;;;23.75;50.72;98385.16;5049472;28;20040;-63
2021/07/06 06:05:44;;;;;;;2.30;2.10;;;;;;;23.88;49.23;98381.50;5050125;28;20029;-63
2021/07/06 06:08:13;;;;;;;3.53;2.47;;;;;;;24.02;49.15;98385.66;5053947;28;20044;-64
2021/07/06 06:10:39;;;;;;;4.15;2.53;;;;;;;24.07;49.22;98370.41;5054121;28;20540;-63
2021/07/06 06:13:04;;;;;;;4.80;2.63;;;;;;;24.24;48.87;98371.75;5053096;28;20420;-63
2021/07/06 06:15:29;;;;;;;7.53;2.95;;;;;;;24.26;48.88;98381.16;5053905;28;20049;-64
2021/07/06 06:17:55;;;;;;;3.10;2.83;;;;;;;24.41;48.55;98374.69;5050915;28;20378;-64
2021/07/06 06:20:20;;;;;;;2.88;2.60;;;;;;;24.43;48.07;98375.44;5051671;28;20025;-64
2021/07/06 06:22:46;;;;;;;3.40;3.10;;;;;;;24.61;48.88;98373.13;5052118;28;20074;-64
2021/07/06 06:25:12;;;;;;;5.78;3.47;;;;;;;24.69;48.51;98377.75;5054017;28;20029;-62
2021/07/06 06:27:37;;;;;;;6.30;3.55;;;;;;;24.87;48.24;98379.75;5052961;28;20025;-63
2021/07/06 06:30:04;;;;;;;3.85;3.30;;;;;;;25.04;48.03;98378.38;5052986;28;20028;-64
2021/07/06 06:32:29;;;;;;;3.33;3.08;;;;;;;25.00;46.76;98364.66;5051679;28;20029;-63
2021/07/06 06:34:55;;;;;;;5.38;3.53;;;;;;;25.04;48.17;98362.63;5038385;28;20036;-63
2021/07/06 06:37:20;;;;;;;5.50;3.80;;;;;;;25.17;47.64;98365.91;5051868;28;20112;-63
2021/07/06 06:39:46;;;;;;;6.70;4.07;;;;;;;25.20;46.61;98362.22;5051980;28;20036;-63
2021/07/06 06:42:11;;;;;;;6.10;3.67;;;;;;;25.35;46.59;98364.38;5050737;28;20028;-62
2021/07/06 06:44:38;;;;;;;7.10;3.33;;;;;;;25.47;46.38;98357.28;5053827;28;20020;-63
2021/07/06 06:47:04;;;;;;;4.60;3.65;;;;;;;25.59;46.98;98358.88;5053333;28;20345;-63
2021/07/06 06:49:29;;;;;;;7.85;3.90;;;;;;;25.67;46.30;98359.09;5052095;28;20029;-62
2021/07/06 06:51:54;;;;;;;3.40;3.15;;;;;;;25.76;45.92;98357.47;5052495;28;20095;-63
2021/07/06 06:54:20;;;;;;;8.32;4.03;;;;;;;25.83;46.78;98356.00;5049714;28;20021;-64
2021/07/06 06:56:46;;;;;;;5.85;3.78;;;;;;;25.90;45.85;98359.75;5049406;28;20293;-64
2021/07/06 06:59:12;;;;;;;5.28;4.63;;;;;;;25.94;47.13;98348.00;5050462;28;20033;-63
2021/07/06 07:01:38;;;;;;;4.25;4.00;;;;;;;26.14;45.88;98352.38;5035010;28;20166;-64
2021/07/06 07:04:05;;;;;;;7.95;4.22;;;;;;;26.23;46.71;98353.41;5051621;28;20180;-64
2021/07/06 07:06:35;;;;;;;4.13;3.83;;;;;;;26.40;45.76;98352.75;5050403;28;20021;-64
2021/07/06 07:09:03;;;;;;;4.03;3.72;;;;;;;26.44;45.59;98354.16;5050422;28;20033;-64
2021/07/06 07:11:28;;;;;;;4.55;4.07;;;;;;;26.57;44.64;98351.25;5050566;28;20029;-64
2021/07/06 07:13:54;;;;;;;4.15;3.72;;;;;;;26.65;44.05;98346.97;5052170;28;20036;-63
2021/07/06 07:16:19;;;;;;;4.75;4.07;;;;;;;26.67;44.35;98336.34;5050110;28;20052;-64
2021/07/06 07:18:45;;;;;;;4.20;3.90;;;;;;;26.78;44.19;98344.91;5050767;28;20393;-63
2021/07/06 07:21:10;;;;;;;4.93;4.47;;;;;;;26.85;44.27;98342.63;5051499;28;20021;-63
2021/07/06 07:23:36;;;;;;;4.70;4.40;;;;;;;26.96;43.65;98342.47;5052583;28;20024;-64
2021/07/06 07:26:02;;;;;;;7.88;5.28;;;;;;;27.01;44.68;98342.88;5049754;28;20032;-63
2021/07/06 07:28:27;;;;;;;5.30;4.68;;;;;;;27.10;43.81;98344.69;5050619;28;20021;-64
2021/07/06 07:30:53;;;;;;;6.43;4.72;;;;;;;27.20;44.02;98348.13;5050722;28;20021;-63
2021/07/06 07:33:18;;;;;;;4.85;4.32;;;;;;;27.23;43.72;98337.34;5052018;28;20231;-63
2021/07/06 07:35:43;;;;;;;4.22;3.92;;;;;;;27.40;44.05;98335.78;5049895;28;20351;-63
2021/07/06 07:38:09;;;;;;;6.72;4.10;;;;;;;27.51;42.88;98338.28;5050530;28;20033;-65
2021/07/06 07:40:35;;;;;;;4.50;4.20;;;;;;;27.60;43.01;98337.44;5052306;28;20025;-64
2021/07/06 07:43:06;;;;;;;8.38;4.28;;;;;;;27.72;42.33;98332.81;5050873;28;20363;-63
2021/07/06 07:45:32;;;;;;;4.75;3.67;;;;;;;27.80;42.83;98338.19;5051142;28;20425;-64
2021/07/06 07:47:58;;;;;;;3.95;3.70;;;;;;;27.95;44.01;98339.38;5052455;28;20036;-65
2021/07/06 07:50:23;;;;;;;5.55;4.00;;;;;;;28.08;41.27;98336.41;5053399;28;20025;-65
2021/07/06 07:52:48;;;;;;;5.38;4.30;;;;;;;28.10;41.20;98331.84;5037657;28;20029;-64
2021/07/06 07:55:14;;;;;;;5.43;5.03;;;;;;;28.17;40.79;98332.09;5051056;28;20111;-65
2021/07/06 07:57:39;;;;;;;5.13;4.78;;;;;;;28.10;42.39;98324.78;5052879;28;20262;-64
2021/07/06 08:00:07;;;;;;;8.32;7.15;;;;;;;28.12;42.43;98328.09;5051829;28;20044;-63
2021/07/06 08:02:32;;;;;;;8.98;6.88;;;;;;;28.31;42.18;98321.03;5048929;28;20266;-64
2021/07/06 08:04:57;;;;;;;5.63;5.15;;;;;;;28.41;41.78;98324.47;5050788;28;20043;-64
2021/07/06 08:07:26;;;;;;;5.43;4.95;;;;;;;28.41;42.15;98316.56;5051421;28;20099;-63
2021/07/06 08:09:52;;;;;;;7.70;4.38;;;;;;;28.55;42.45;98313.41;5049689;28;20043;-63
2021/07/06 08:12:17;;;;;;;4.93;4.53;;;;;;;28.73;41.52;98313.47;5050586;28;20036;-63
2021/07/06 08:14:43;;;;;;;4.68;3.72;;;;;;;28.80;41.16;98307.41;5050885;28;20140;-64
2021/07/06 08:17:08;;;;;;;4.85;4.43;;;;;;;28.81;40.22;98305.59;5050394;28;20361;-64
2021/07/06 08:19:34;;;;;;;4.60;4.03;;;;;;;28.91;40.20;98304.53;5049004;28;20060;-64
2021/07/06 08:22:00;;;;;;;4.30;4.00;;;;;;;29.01;39.88;98296.53;5049591;28;20025;-63
2021/07/06 08:24:25;;;;;;;6.15;4.65;;;;;;;29.12;39.46;98279.59;5049678;28;20029;-64
2021/07/06 08:26:51;;;;;;;4.82;4.47;;;;;;;29.32;40.50;98291.69;5049150;28;20424;-64
2021/07/06 08:29:17;;;;;;;5.47;5.07;;;;;;;29.30;40.22;98280.44;5047419;28;20035;-65
2021/07/06 08:31:43;;;;;;;4.93;4.55;;;;;;;29.43;38.24;98276.41;5049514;28;20054;-64
2021/07/06 08:34:09;;;;;;;3.85;3.65;;;;;;;29.55;38.31;98268.19;5048580;28;20020;-64
2021/07/06 08:36:34;;;;;;;4.40;4.10;;;;;;;29.32;38.43;98273.19;5033132;28;20374;-64
2021/07/06 08:39:00;;;;;;;3.95;3.58;;;;;;;29.65;37.09;98266.28;5050507;28;20082;-64
2021/07/06 08:41:25;;;;;;;5.18;4.63;;;;;;;29.68;36.61;98265.94;5050308;28;20021;-65
2021/07/06 08:43:51;;;;;;;4.50;4.10;;;;;;;29.82;38.13;98265.34;5050342;28;20444;-66
2021/07/06 08:46:18;;;;;;;3.80;3.50;;;;;;;29.76;37.07;98269.47;5047949;28;20115;-65
2021/07/06 08:48:45;;;;;;;4.93;3.63;;;;;;;29.90;36.74;98260.13;5047629;28;20116;-65
2021/07/06 08:51:12;;;;;;;3.70;3.40;;;;;;;29.97;35.73;98265.59;5049349;28;20057;-65
2021/07/06 08:53:38;;;;;;;6.03;3.63;;;;;;;30.03;35.16;98259.69;5049066;28;20024;-65
2021/07/06 08:56:03;;;;;;;4.00;3.65;;;;;;;29.88;34.47;98262.09;5049180;28;20043;-66
2021/07/06 08:58:29;;;;;;;4.50;4.30;;;;;;;29.96;34.92;98253.38;5050655;28;20039;-66
2021/07/06 09:00:54;;;;;;;3.63;3.35;;;;;;;29.97;34.50;98244.44;5048951;28;20028;-66
2021/07/06 09:03:19;;;;;;;3.80;2.88;;;;;;;30.18;35.96;98245.66;5047469;28;20021;-66
2021/07/06 09:05:45;;;;;;;3.30;3.10;;;;;;;30.51;35.30;98251.88;5049224;28;20017;-65
2021/07/06 09:08:16;;;;;;;4.10;3.00;;;;;;;30.66;34.65;98247.59;5046767;28;20040;-65
2021/07/06 09:10:42;;;;;;;3.03;2.83;;;;;;;30.71;32.89;98245.28;5048525;28;20021;-64
2021/07/06 09:13:18;;;;;;;4.28;3.80;;;;;;;30.70;33.20;98248.91;5047482;28;20041;-65
2021/07/06 09:15:53;;;;;;;6.53;3.70;;;;;;;30.81;34.44;98245.91;5048927;28;20044;-65
2021/07/06 09:18:20;;;;;;;3.88;3.38;;;;;;;30.97;35.09;98252.22;5049201;28;20029;-65
2021/07/06 09:21:09;;;;;;;3.35;3.15;;;;;;;30.97;32.66;98250.41;5049137;28;20021;-65
2021/07/06 09:23:37;;;;;;;3.70;2.80;;;;;;;31.06;33.58;98248.59;5048329;28;20032;-65
2021/07/06 09:26:10;;;;;;;4.68;3.42;;;;;;;31.12;35.13;98248.75;5049295;28;20029;-65
2021/07/06 09:28:38;;;;;;;3.20;3.00;;;;;;;31.36;33.91;98242.56;5049742;28;20029;-65
2021/07/06 09:31:22;;;;;;;18.67;17.02;;;;;;;31.18;31.69;98231.38;5049001;28;20108;-65
2021/07/06 09:33:55;;;;;;;3.90;3.60;;;;;;;31.36;32.91;98226.66;5047140;28;20124;-65
2021/07/06 09:36:25;;;;;;;2.85;2.65;;;;;;;31.40;33.40;98219.22;5048108;28;20059;-65
2021/07/06 09:39:08;;;;;;;3.53;3.33;;;;;;;31.47;32.75;98221.03;5049019;28;20033;-65
2021/07/06 09:41:34;;;;;;;4.13;3.58;;;;;;;31.59;32.72;98216.19;5047776;28;20424;-65
2021/07/06 09:44:32;;;;;;;8.80;4.22;;;;;;;31.74;32.67;98212.63;5047697;28;20029;-65
2021/07/06 09:47:04;;;;;;;3.75;3.38;;;;;;;31.76;31.89;98214.31;5041247;28;20033;-64
2021/07/06 09:49:36;;;;;;;3.42;3.13;;;;;;;31.82;31.72;98210.97;5047401;28;20393;-65
2021/07/06 09:52:16;;;;;;;3.40;3.20;;;;;;;31.68;31.34;98205.41;5048430;28;20082;-65
2021/07/06 09:54:47;;;;;;;3.50;3.25;;;;;;;31.54;31.73;98200.81;5049454;28;20583;-65
2021/07/06 09:57:14;;;;;;;3.08;2.97;;;;;;;31.69;32.67;98200.91;5048573;28;20028;-65
2021/07/06 10:00:00;;;;;;;4.13;3.92;;;;;;;31.99;32.58;98200.09;5048156;28;20051;-65
2021/07/06 10:02:27;;;;;;;3.70;3.50;;;;;;;32.09;30.18;98203.38;5048942;28;20016;-66
2021/07/06 10:04:54;;;;;;;3.38;3.28;;;;;;;32.06;29.91;98192.25;5049101;28;20024;-65
2021/07/06 10:07:22;;;;;;;3.65;3.38;;;;;;;31.86;31.17;98193.72;5049781;28;20031;-65
2021/07/06 10:09:48;;;;;;;3.53;3.30;;;;;;;31.85;31.02;98186.75;5047419;28;20020;-65
2021/07/06 10:12:18;;;;;;;6.03;3.13;;;;;;;32.05;30.95;98180.81;5047962;28;20106;-65
2021/07/06 10:14:44;;;;;;;3.67;3.40;;;;;;;31.86;31.06;98181.28;5049888;28;20386;-65
2021/07/06 10:17:11;;;;;;;4.43;4.03;;;;;;;32.21;31.41;98193.19;5048809;28;20145;-65
2021/07/06 10:19:45;;;;;;;3.50;3.15;;;;;;;32.30;30.31;98186.81;5048220;28;20136;-64
2021/07/06 10:22:13;;;;;;;3.13;3.03;;;;;;;32.44;30.69;98185.22;5047379;28;20032;-64
2021/07/06 10:24:47;;;;;;;7.35;4.38;;;;;;;32.49;30.10;98199.63;5048557;28;20021;-65
2021/07/06 10:27:25;;;;;;;3.58;3.25;;;;;;;32.40;29.89;98198.03;5047958;28;20022;-66
2021/07/06 10:30:30;;;;;;;3.80;3.53;;;;;;;32.45;30.27;98189.53;5047786;28;20143;-67
2021/07/06 10:32:59;;;;;;;;;;;;;;;32.55;30.79;98185.63;4951851;28;20320;-65
2021/07/06 10:35:36;;;;;;;3.10;3.00;;;;;;;32.80;30.74;98180.97;4951890;28;20291;-65
2021/07/06 10:38:26;;;;;;;3.85;3.65;;;;;;;32.89;30.24;98177.22;4952916;28;20089;-65
2021/07/06 10:40:55;;;;;;;4.25;3.95;;;;;;;32.78;30.34;98169.69;4951757;28;20425;-65
2021/07/06 10:43:54;;;;;;;3.45;3.25;;;;;;;32.88;31.09;98174.75;4951777;28;20062;-66
2021/07/06 10:46:19;;;;;;;4.03;3.72;;;;;;;33.08;30.58;98174.03;4932504;28;20026;-66
2021/07/06 10:48:50;;;;;;;4.00;3.80;;;;;;;33.11;31.07;98179.97;4951315;28;20558;-65
2021/07/06 10:51:39;;;;;;;3.83;3.58;;;;;;;33.19;30.33;98170.13;4951732;28;20035;-65
2021/07/06 10:54:11;;;;;;;4.43;2.90;;;;;;;33.39;30.03;98165.91;4956042;28;20138;-65
2021/07/06 10:56:43;;;;;;;4.05;3.85;;;;;;;33.27;29.95;98158.59;4954371;28;20027;-65
2021/07/06 10:59:24;;;;;;;3.42;3.22;;;;;;;33.27;31.00;98158.59;4956222;28;20038;-65
2021/07/06 11:01:49;;;;;;;4.20;4.00;;;;;;;33.25;29.77;98161.44;4955685;28;20043;-65
2021/07/06 11:04:36;;;;;;;4.18;3.70;;;;;;;33.45;30.08;98154.53;4956960;28;20075;-64
2021/07/06 11:07:06;;;;;;;11.07;9.27;;;;;;;33.25;28.78;98155.28;5010369;28;20041;-65
2021/07/06 11:09:32;;;;;;;4.38;4.13;;;;;;;33.30;29.96;98147.59;5051112;28;20103;-65
2021/07/06 11:12:24;;;;;;;4.20;3.83;;;;;;;33.31;29.00;98141.28;5052464;28;20029;-65
2021/07/06 11:14:54;;;;;;;3.88;3.50;;;;;;;33.21;29.53;98148.69;5052761;28;20122;-64
2021/07/06 11:17:48;;;;;;;3.95;3.75;;;;;;;33.24;28.91;98127.03;5034311;28;20116;-65
2021/07/06 11:20:28;;;;;;;3.95;3.65;;;;;;;33.30;29.63;98137.78;5049628;28;20036;-64
2021/07/06 11:22:56;;;;;;;4.65;3.55;;;;;;;33.39;30.71;98147.31;5052376;28;20632;-64
2021/07/06 11:25:34;;;;;;;3.72;3.53;;;;;;;33.60;28.90;98137.75;5051254;28;20369;-65
2021/07/06 11:28:03;;;;;;;3.95;3.75;;;;;;;33.42;28.55;98138.13;5051123;28;20052;-65
2021/07/06 11:30:50;;;;;;;4.00;3.80;;;;;;;33.63;29.08;98132.03;5051824;28;20028;-65
2021/07/06 11:33:18;;;;;;;3.28;3.05;;;;;;;33.80;29.66;98136.16;5051002;28;20029;-65
2021/07/06 11:35:50;;;;;;;3.65;3.45;;;;;;;34.00;28.25;98136.34;5052051;28;20025;-65
2021/07/06 11:38:20;;;;;;;3.58;3.38;;;;;;;33.90;28.11;98136.69;5051576;28;20024;-65
2021/07/06 11:40:48;;;;;;;3.45;3.35;;;;;;;33.71;28.63;98127.47;5051955;28;20020;-65